createdAt,value
2018-06-23T00:00:19.527Z,11.66
2018-06-23T00:02:48.529Z,11.67
2018-06-23T00:05:17.474Z,11.64
2018-06-23T00:07:46.462Z,11.66
2018-06-23T00:10:15.433Z,11.72
2018-06-23T00:12:44.408Z,11.69
2018-06-23T00:15:13.312Z,11.68
2018-06-23T00:17:42.202Z,11.58
2018-06-23T00:20:11.067Z,11.63
2018-06-23T00:22:39.972Z,11.62
2018-06-23T00:25:08.880Z,11.62
2018-06-23T00:27:37.824Z,11.57
2018-06-23T00:30:06.740Z,11.62
2018-06-23T00:32:35.617Z,11.65
2018-06-23T00:35:04.476Z,11.67
2018-06-23T00:37:33.321Z,11.68
2018-06-23T00:40:02.292Z,11.70
2018-06-23T00:42:31.173Z,11.67
2018-06-23T00:45:00.094Z,11.67
2018-06-23T00:47:28.962Z,11.67
2018-06-23T00:49:58.910Z,11.69
2018-06-23T00:52:27.891Z,11.71
2018-06-23T00:54:56.809Z,11.71
2018-06-23T00:57:25.747Z,11.67
2018-06-23T00:59:54.645Z,11.60
2018-06-23T01:02:23.482Z,11.57
2018-06-23T01:04:52.375Z,11.57
2018-06-23T01:07:21.288Z,11.61
2018-06-23T01:09:50.165Z,11.59
2018-06-23T01:12:19.087Z,11.61
2018-06-23T01:14:48.012Z,11.62
2018-06-23T01:17:16.985Z,11.70
2018-06-23T01:19:45.892Z,11.71
2018-06-23T01:22:14.754Z,11.75
2018-06-23T01:24:43.733Z,11.85
2018-06-23T01:27:12.734Z,11.86
2018-06-23T01:29:41.644Z,11.88
2018-06-23T01:32:10.557Z,11.93
2018-06-23T01:34:39.498Z,11.90
2018-06-23T01:37:08.340Z,11.90
2018-06-23T01:39:37.277Z,11.85
2018-06-23T01:42:07.162Z,11.83
2018-06-23T01:44:36.068Z,11.76
2018-06-23T01:47:05.024Z,11.73
2018-06-23T01:49:33.912Z,11.69
2018-06-23T01:52:02.877Z,11.73
2018-06-23T01:54:31.759Z,11.68
2018-06-23T01:57:00.736Z,11.73
2018-06-23T01:59:29.564Z,11.83
2018-06-23T02:01:58.417Z,11.87
2018-06-23T02:04:27.409Z,11.93
2018-06-23T02:06:56.255Z,11.97
2018-06-23T02:09:25.184Z,12.00
2018-06-23T02:11:54.083Z,12.05
2018-06-23T02:14:28.070Z,12.03
2018-06-23T02:17:02.133Z,12.05
2018-06-23T02:19:36.207Z,12.09
2018-06-23T02:22:10.361Z,12.12
2018-06-23T02:24:44.473Z,12.21
2018-06-23T02:27:18.674Z,12.20
2018-06-23T02:29:52.880Z,12.27
2018-06-23T02:32:26.770Z,12.26
2018-06-23T02:35:05.080Z,12.26
2018-06-23T02:37:36.219Z,12.23
2018-06-23T02:40:05.505Z,12.24
2018-06-23T02:42:34.713Z,12.26
2018-06-23T02:45:04.117Z,12.25
2018-06-23T02:47:33.055Z,12.32
2018-06-23T02:50:02.011Z,12.36
2018-06-23T02:52:31.919Z,12.45
2018-06-23T02:55:01.256Z,12.49
2018-06-23T02:57:30.367Z,12.47
2018-06-23T02:59:59.322Z,12.53
2018-06-23T03:02:28.201Z,12.53
2018-06-23T03:04:57.322Z,12.64
2018-06-23T03:07:26.228Z,12.62
2018-06-23T03:09:55.261Z,12.62
2018-06-23T03:12:24.143Z,12.54
2018-06-23T03:14:52.957Z,12.53
2018-06-23T03:17:21.885Z,12.53
2018-06-23T03:19:51.917Z,12.56
2018-06-23T03:22:20.989Z,12.55
2018-06-23T03:24:49.841Z,12.56
2018-06-23T03:27:18.706Z,12.52
2018-06-23T03:29:47.569Z,12.55
2018-06-23T03:32:16.400Z,12.59
2018-06-23T03:34:48.426Z,12.60
2018-06-23T03:37:17.286Z,12.64
2018-06-23T03:39:46.182Z,12.65
2018-06-23T03:42:15.037Z,12.56
2018-06-23T03:44:43.899Z,12.58
2018-06-23T03:47:12.827Z,12.55
2018-06-23T03:49:41.745Z,12.52
2018-06-23T03:52:10.639Z,12.55
2018-06-23T03:54:39.590Z,12.60
2018-06-23T03:57:08.481Z,12.67
2018-06-23T03:59:37.425Z,12.72
2018-06-23T04:02:06.373Z,12.73
2018-06-23T04:04:35.245Z,12.69
2018-06-23T04:07:04.140Z,12.82
2018-06-23T04:09:33.078Z,12.84
2018-06-23T04:12:01.994Z,12.80
2018-06-23T04:14:30.914Z,12.89
2018-06-23T04:16:59.862Z,12.92
2018-06-23T04:19:28.845Z,12.85
2018-06-23T04:21:57.729Z,12.88
2018-06-23T04:24:26.620Z,12.93
2018-06-23T04:26:55.492Z,12.90
2018-06-23T04:29:24.480Z,12.88
2018-06-23T04:31:53.521Z,12.85
2018-06-23T04:34:22.491Z,12.85
2018-06-23T04:36:51.424Z,12.79
2018-06-23T04:39:20.393Z,12.82
2018-06-23T04:41:49.301Z,12.75
2018-06-23T04:44:18.176Z,12.78
2018-06-23T04:46:47.057Z,12.72
2018-06-23T04:49:16.017Z,12.78
2018-06-23T04:51:44.867Z,12.74
2018-06-23T04:54:13.865Z,12.77
2018-06-23T04:56:42.775Z,12.86
2018-06-23T04:59:11.772Z,12.87
2018-06-23T05:01:40.691Z,12.88
2018-06-23T05:04:09.673Z,13.00
2018-06-23T05:06:38.685Z,13.02
2018-06-23T05:09:08.270Z,13.12
2018-06-23T05:11:37.193Z,13.20
2018-06-23T05:14:06.049Z,13.17
2018-06-23T05:16:35.000Z,13.14
2018-06-23T05:19:03.929Z,13.09
2018-06-23T05:21:32.773Z,13.19
2018-06-23T05:24:01.648Z,13.31
2018-06-23T05:26:30.559Z,13.41
2018-06-23T05:28:59.445Z,13.46
2018-06-23T05:31:28.334Z,13.51
2018-06-23T05:33:57.299Z,13.47
2018-06-23T05:36:26.519Z,13.49
2018-06-23T05:38:55.411Z,13.61
2018-06-23T05:41:24.345Z,13.65
2018-06-23T05:43:56.147Z,13.85
2018-06-23T05:46:25.101Z,13.99
2018-06-23T05:48:53.993Z,14.20
2018-06-23T05:51:23.027Z,14.29
2018-06-23T05:53:52.006Z,14.19
2018-06-23T05:56:20.926Z,14.05
2018-06-23T05:58:49.828Z,14.06
2018-06-23T06:01:18.721Z,14.00
2018-06-23T06:03:47.798Z,13.86
2018-06-23T06:06:16.818Z,13.71
2018-06-23T06:08:45.792Z,13.76
2018-06-23T06:11:14.759Z,13.63
2018-06-23T06:13:43.654Z,13.47
2018-06-23T06:16:12.583Z,13.37
2018-06-23T06:18:41.562Z,13.41
2018-06-23T06:21:10.522Z,14.20
2018-06-23T06:23:39.423Z,14.26
2018-06-23T06:26:08.308Z,13.95
2018-06-23T06:28:37.253Z,13.81
2018-06-23T06:31:06.293Z,13.68
2018-06-23T06:33:35.188Z,13.61
2018-06-23T06:36:07.189Z,13.52
2018-06-23T06:38:36.086Z,13.40
2018-06-23T06:41:05.089Z,13.49
2018-06-23T06:43:34.102Z,13.62
2018-06-23T06:46:03.036Z,13.69
2018-06-23T06:48:32.071Z,13.54
2018-06-23T06:51:00.998Z,13.42
2018-06-23T06:53:29.926Z,13.13
2018-06-23T06:55:58.803Z,13.04
2018-06-23T06:58:27.791Z,13.04
2018-06-23T07:00:56.741Z,12.57
2018-06-23T07:03:25.687Z,12.81
2018-06-23T07:05:54.585Z,13.01
2018-06-23T07:08:23.613Z,13.34
2018-06-23T07:10:52.521Z,13.40
2018-06-23T07:13:21.449Z,13.54
2018-06-23T07:15:50.421Z,13.53
2018-06-23T07:18:19.317Z,13.48
2018-06-23T07:20:48.168Z,13.64
2018-06-23T07:23:17.004Z,13.69
2018-06-23T07:25:45.861Z,13.66
2018-06-23T07:28:18.281Z,13.48
2018-06-23T07:30:48.791Z,13.59
2018-06-23T07:33:18.066Z,13.56
2018-06-23T07:35:50.437Z,13.53
2018-06-23T07:38:19.382Z,13.53
2018-06-23T07:40:48.608Z,13.72
2018-06-23T07:43:17.615Z,13.73
2018-06-23T07:45:46.830Z,13.49
2018-06-23T07:48:15.766Z,13.52
2018-06-23T07:50:44.730Z,13.40
2018-06-23T07:53:14.099Z,13.20
2018-06-23T07:55:43.162Z,13.22
2018-06-23T07:58:12.729Z,13.27
2018-06-23T08:00:41.677Z,13.57
2018-06-23T08:03:10.622Z,14.14
2018-06-23T08:05:39.733Z,14.53
2018-06-23T08:08:09.111Z,14.71
2018-06-23T08:10:38.699Z,14.74
2018-06-23T08:13:08.149Z,14.81
2018-06-23T08:15:37.171Z,15.13
2018-06-23T08:18:06.314Z,15.16
2018-06-23T08:20:35.258Z,15.60
2018-06-23T08:23:04.252Z,15.55
2018-06-23T08:25:33.248Z,15.46
2018-06-23T08:28:02.380Z,15.73
2018-06-23T08:30:31.308Z,16.15
2018-06-23T08:33:00.332Z,16.82
2018-06-23T08:35:29.216Z,17.07
2018-06-23T08:37:58.219Z,16.89
2018-06-23T08:40:27.155Z,16.36
2018-06-23T08:42:56.087Z,15.96
2018-06-23T08:45:25.066Z,15.60
2018-06-23T08:47:54.044Z,15.50
2018-06-23T08:50:23.088Z,15.20
2018-06-23T08:52:52.053Z,14.96
2018-06-23T08:55:21.073Z,14.71
2018-06-23T08:57:49.913Z,14.48
2018-06-23T09:00:18.812Z,14.15
2018-06-23T09:02:47.776Z,14.04
2018-06-23T09:05:16.689Z,13.91
2018-06-23T09:07:45.590Z,13.65
2018-06-23T09:10:14.486Z,13.32
2018-06-23T09:12:43.790Z,13.17
2018-06-23T09:15:12.959Z,13.20
2018-06-23T09:17:41.851Z,13.03
2018-06-23T09:20:11.390Z,13.03
2018-06-23T09:22:40.984Z,13.26
2018-06-23T09:25:10.085Z,13.37
2018-06-23T09:27:38.999Z,13.74
2018-06-23T09:30:08.081Z,14.16
2018-06-23T09:32:37.060Z,14.64
2018-06-23T09:35:05.905Z,15.28
2018-06-23T09:37:34.777Z,15.39
2018-06-23T09:40:03.749Z,15.41
2018-06-23T09:42:32.665Z,15.21
2018-06-23T09:45:01.556Z,14.82
2018-06-23T09:47:30.409Z,14.31
2018-06-23T09:49:59.366Z,14.01
2018-06-23T09:52:28.413Z,13.87
2018-06-23T09:54:57.399Z,13.88
2018-06-23T09:57:26.267Z,13.92
2018-06-23T09:59:57.871Z,14.05
2018-06-23T10:02:26.782Z,14.33
2018-06-23T10:04:55.690Z,14.64
2018-06-23T10:07:24.669Z,14.67
2018-06-23T10:09:53.581Z,14.86
2018-06-23T10:12:22.536Z,15.13
2018-06-23T10:14:51.475Z,15.19
2018-06-23T10:17:20.496Z,15.32
2018-06-23T10:19:49.417Z,15.59
2018-06-23T10:22:18.367Z,15.63
2018-06-23T10:24:47.222Z,15.62
2018-06-23T10:27:16.132Z,15.56
2018-06-23T10:29:44.992Z,15.17
2018-06-23T10:32:13.842Z,14.98
2018-06-23T10:34:42.884Z,14.65
2018-06-23T10:37:12.550Z,14.42
2018-06-23T10:39:41.485Z,14.50
2018-06-23T10:42:49.517Z,14.65
2018-06-23T10:45:18.637Z,14.72
2018-06-23T10:47:48.621Z,14.72
2018-06-23T10:50:17.546Z,14.78
2018-06-23T10:52:46.685Z,14.92
2018-06-23T10:55:18.705Z,14.99
2018-06-23T10:57:47.594Z,14.83
2018-06-23T11:00:16.987Z,14.93
2018-06-23T11:02:45.944Z,14.91
2018-06-23T11:05:15.266Z,15.07
2018-06-23T11:07:44.165Z,15.03
2018-06-23T11:10:13.866Z,14.89
2018-06-23T11:12:42.806Z,14.95
2018-06-23T11:15:11.796Z,15.06
2018-06-23T11:17:40.755Z,15.10
2018-06-23T11:20:09.645Z,14.86
2018-06-23T11:22:38.537Z,14.72
2018-06-23T11:25:07.433Z,14.53
2018-06-23T11:27:36.550Z,14.41
2018-06-23T11:30:07.073Z,14.45
2018-06-23T11:32:36.485Z,14.73
2018-06-23T11:35:05.738Z,15.11
2018-06-23T11:37:38.557Z,15.25
2018-06-23T11:40:10.999Z,15.44
2018-06-23T11:42:39.969Z,15.28
2018-06-23T11:45:08.837Z,15.16
2018-06-23T11:47:38.674Z,14.97
2018-06-23T11:50:07.716Z,14.95
2018-06-23T11:52:43.225Z,14.78
2018-06-23T11:55:20.115Z,14.70
2018-06-23T11:57:56.543Z,14.59
2018-06-23T12:00:32.189Z,14.41
2018-06-23T12:03:01.710Z,14.36
2018-06-23T12:05:37.792Z,14.53
2018-06-23T12:08:10.300Z,14.40
2018-06-23T12:10:41.275Z,14.45
2018-06-23T12:13:21.349Z,14.56
2018-06-23T12:15:54.517Z,14.70
2018-06-23T12:18:29.280Z,14.69
2018-06-23T12:21:02.771Z,14.69
2018-06-23T12:23:39.919Z,14.61
2018-06-23T12:26:17.682Z,14.46
2018-06-23T12:28:56.712Z,14.36
2018-06-23T12:31:35.345Z,14.32
2018-06-23T12:34:10.987Z,14.18
2018-06-23T12:36:39.866Z,14.05
2018-06-23T12:39:14.528Z,14.05
2018-06-23T12:41:47.591Z,14.07
2018-06-23T12:44:16.711Z,14.25
2018-06-23T12:46:45.598Z,14.24
2018-06-23T12:49:14.447Z,14.45
2018-06-23T12:51:43.323Z,14.54
2018-06-23T12:54:12.196Z,14.69
2018-06-23T12:56:41.089Z,14.72
2018-06-23T12:59:10.319Z,14.67
2018-06-23T13:01:39.169Z,14.54
2018-06-23T13:04:08.269Z,14.56
2018-06-23T13:06:37.108Z,14.66
2018-06-23T13:09:08.911Z,14.90
2018-06-23T13:11:37.792Z,15.19
2018-06-23T13:14:06.645Z,15.32
2018-06-23T13:16:38.336Z,15.29
2018-06-23T13:19:13.234Z,15.16
2018-06-23T13:21:44.129Z,14.98
2018-06-23T13:24:13.548Z,14.69
2018-06-23T13:26:43.651Z,14.55
2018-06-23T13:29:12.501Z,14.37
2018-06-23T13:31:41.323Z,14.22
2018-06-23T13:34:10.254Z,14.22
2018-06-23T13:36:39.353Z,14.37
2018-06-23T13:39:09.637Z,14.34
2018-06-23T13:41:38.527Z,14.61
2018-06-23T13:44:07.390Z,14.88
2018-06-23T13:46:36.297Z,15.01
2018-06-23T13:49:05.614Z,14.97
2018-06-23T13:51:34.502Z,14.70
2018-06-23T13:54:03.447Z,14.67
2018-06-23T13:56:32.312Z,14.71
2018-06-23T13:59:01.203Z,14.78
2018-06-23T14:01:30.138Z,14.86
2018-06-23T14:03:58.965Z,15.04
2018-06-23T14:06:28.565Z,15.04
2018-06-23T14:08:57.795Z,15.09
2018-06-23T14:11:26.849Z,15.01
2018-06-23T14:13:55.772Z,14.93
2018-06-23T14:16:25.628Z,14.91
2018-06-23T14:19:03.160Z,14.70
2018-06-23T14:21:32.452Z,14.68
2018-06-23T14:24:01.686Z,14.57
2018-06-23T14:26:31.204Z,14.62
2018-06-23T14:29:00.664Z,14.77
2018-06-23T14:31:29.772Z,14.69
2018-06-23T14:33:59.279Z,14.70
2018-06-23T14:36:28.281Z,14.54
2018-06-23T14:38:57.202Z,14.46
2018-06-23T14:41:26.284Z,14.33
2018-06-23T14:43:55.249Z,14.32
2018-06-23T14:46:24.208Z,14.20
2018-06-23T23:36:17.450Z,12.30
2018-06-23T23:38:46.388Z,12.37
2018-06-23T23:41:39.949Z,12.34
2018-06-23T23:54:12.469Z,12.27
2018-06-23T23:56:41.377Z,12.26
2018-06-23T23:59:10.309Z,12.27
